sensor_id;sensor_type;location;lat;lon;timestamp;pressure;altitude;pressure_sealevel;temperature;humidity
9307;BME280;4691;47.612;7.610;2023-08-07T00:01:44;99090.78;;;14.44;100.00
9307;BME280;4691;47.612;7.610;2023-08-07T00:04:09;99099.13;;;14.41;100.00
9307;BME280;4691;47.612;7.610;2023-08-07T00:06:35;99097.16;;;14.43;100.00
9307;BME280;4691;47.612;7.610;2023-08-07T00:09:00;99092.06;;;14.40;100.00
9307;BME280;4691;47.612;7.610;2023-08-07T00:11:26;99092.34;;;14.36;100.00
9307;BME280;4691;47.612;7.610;2023-08-07T00:13:53;99098.56;;;14.37;100.00
9307;BME280;4691;47.612;7.610;2023-08-07T00:16:18;99092.34;;;14.36;100.00
9307;BME280;4691;47.612;7.610;2023-08-07T00:18:43;99102.09;;;14.37;100.00
9307;BME280;4691;47.612;7.610;2023-08-07T00:21:09;99094.03;;;14.37;100.00
9307;BME280;4691;47.612;7.610;2023-08-07T00:23:34;99089.66;;;14.36;100.00
9307;BME280;4691;47.612;7.610;2023-08-07T00:25:59;99096.00;;;14.35;100.00
9307;BME280;4691;47.612;7.610;2023-08-07T00:28:25;99094.19;;;14.46;100.00
9307;BME280;4691;47.612;7.610;2023-08-07T00:30:50;99088.66;;;14.37;100.00
9307;BME280;4691;47.612;7.610;2023-08-07T00:33:15;99088.06;;;14.34;100.00
9307;BME280;4691;47.612;7.610;2023-08-07T00:35:43;99091.06;;;14.41;100.00
9307;BME280;4691;47.612;7.610;2023-08-07T00:38:09;99096.28;;;14.32;100.00
9307;BME280;4691;47.612;7.610;2023-08-07T00:40:38;99089.94;;;14.33;100.00
9307;BME280;4691;47.612;7.610;2023-08-07T00:43:03;99094.31;;;14.34;100.00
9307;BME280;4691;47.612;7.610;2023-08-07T00:45:29;99092.34;;;14.36;100.00
9307;BME280;4691;47.612;7.610;2023-08-07T00:47:54;99088.97;;;14.44;100.00
9307;BME280;4691;47.612;7.610;2023-08-07T00:50:20;99097.72;;;14.36;100.00
9307;BME280;4691;47.612;7.610;2023-08-07T00:52:45;99089.78;;;14.35;100.00
9307;BME280;4691;47.612;7.610;2023-08-07T00:55:11;99087.06;;;14.35;100.00
9307;BME280;4691;47.612;7.610;2023-08-07T00:57:36;99087.41;;;14.42;100.00
9307;BME280;4691;47.612;7.610;2023-08-07T01:00:02;99084.53;;;14.33;100.00
9307;BME280;4691;47.612;7.610;2023-08-07T01:02:28;99083.38;;;14.26;100.00
9307;BME280;4691;47.612;7.610;2023-08-07T01:04:53;99088.88;;;14.25;100.00
9307;BME280;4691;47.612;7.610;2023-08-07T01:07:19;99084.63;;;14.22;100.00
9307;BME280;4691;47.612;7.610;2023-08-07T01:09:44;99094.25;;;14.25;100.00
9307;BME280;4691;47.612;7.610;2023-08-07T01:12:19;99090.72;;;14.24;100.00
9307;BME280;4691;47.612;7.610;2023-08-07T01:17:28;99092.03;;;14.30;100.00
9307;BME280;4691;47.612;7.610;2023-08-07T01:19:55;99092.56;;;14.24;100.00
9307;BME280;4691;47.612;7.610;2023-08-07T01:22:22;99101.03;;;14.19;100.00
9307;BME280;4691;47.612;7.610;2023-08-07T01:24:51;99101.63;;;14.23;100.00
9307;BME280;4691;47.612;7.610;2023-08-07T01:27:22;99096.28;;;14.32;100.00
9307;BME280;4691;47.612;7.610;2023-08-07T01:29:55;99103.06;;;14.27;100.00
9307;BME280;4691;47.612;7.610;2023-08-07T01:35:14;99117.19;;;14.19;100.00
9307;BME280;4691;47.612;7.610;2023-08-07T01:37:43;99113.25;;;14.23;100.00
9307;BME280;4691;47.612;7.610;2023-08-07T01:40:09;99123.69;;;14.16;100.00
9307;BME280;4691;47.612;7.610;2023-08-07T01:42:36;99108.13;;;14.20;100.00
9307;BME280;4691;47.612;7.610;2023-08-07T01:45:04;99104.47;;;14.21;100.00
9307;BME280;4691;47.612;7.610;2023-08-07T01:47:29;99107.53;;;14.16;100.00
9307;BME280;4691;47.612;7.610;2023-08-07T01:49:54;99116.91;;;14.22;100.00
9307;BME280;4691;47.612;7.610;2023-08-07T01:52:20;99115.22;;;14.21;100.00
9307;BME280;4691;47.612;7.610;2023-08-07T01:54:46;99110.34;;;14.15;100.00
9307;BME280;4691;47.612;7.610;2023-08-07T01:57:11;99108.66;;;14.14;100.00
9307;BME280;4691;47.612;7.610;2023-08-07T01:59:36;99109.91;;;14.10;100.00
9307;BME280;4691;47.612;7.610;2023-08-07T02:02:02;99105.53;;;14.09;100.00
9307;BME280;4691;47.612;7.610;2023-08-07T02:04:27;99105.53;;;14.09;100.00
9307;BME280;4691;47.612;7.610;2023-08-07T02:06:52;99105.22;;;14.02;100.00
9307;BME280;4691;47.612;7.610;2023-08-07T02:09:18;99101.59;;;14.13;100.00
9307;BME280;4691;47.612;7.610;2023-08-07T02:11:43;99109.00;;;14.00;100.00
9307;BME280;4691;47.612;7.610;2023-08-07T02:14:09;99106.31;;;14.00;100.00
9307;BME280;4691;47.612;7.610;2023-08-07T02:19:32;99113.69;;;13.98;100.00
9307;BME280;4691;47.612;7.610;2023-08-07T02:21:57;99116.63;;;13.94;100.00
9307;BME280;4691;47.612;7.610;2023-08-07T02:24:22;99120.50;;;14.02;100.00
9307;BME280;4691;47.612;7.610;2023-08-07T02:26:48;99119.31;;;13.94;100.00
9307;BME280;4691;47.612;7.610;2023-08-07T02:29:13;99126.69;;;13.92;100.00
9307;BME280;4691;47.612;7.610;2023-08-07T02:31:38;99121.63;;;13.99;100.00
9307;BME280;4691;47.612;7.610;2023-08-07T02:34:03;99126.41;;;13.96;100.00
9307;BME280;4691;47.612;7.610;2023-08-07T02:36:29;99117.50;;;13.95;100.00
9307;BME280;4691;47.612;7.610;2023-08-07T02:38:54;99126.81;;;13.91;100.00
9307;BME280;4691;47.612;7.610;2023-08-07T02:41:19;99117.63;;;13.93;100.00
9307;BME280;4691;47.612;7.610;2023-08-07T02:43:45;99121.31;;;13.92;100.00
9307;BME280;4691;47.612;7.610;2023-08-07T02:46:10;99124.84;;;13.93;100.00
9307;BME280;4691;47.612;7.610;2023-08-07T02:48:38;99119.88;;;13.88;100.00
9307;BME280;4691;47.612;7.610;2023-08-07T02:51:05;99120.72;;;13.89;100.00
9307;BME280;4691;47.612;7.610;2023-08-07T02:53:30;99126.25;;;13.87;100.00
9307;BME280;4691;47.612;7.610;2023-08-07T02:55:56;99128.09;;;13.97;100.00
9307;BME280;4691;47.612;7.610;2023-08-07T02:58:21;99126.34;;;13.86;100.00
9307;BME280;4691;47.612;7.610;2023-08-07T03:00:46;99124.41;;;13.88;100.00
9307;BME280;4691;47.612;7.610;2023-08-07T03:03:12;99130.28;;;13.82;100.00
9307;BME280;4691;47.612;7.610;2023-08-07T03:05:37;99132.84;;;13.83;100.00
9307;BME280;4691;47.612;7.610;2023-08-07T03:08:02;99134.53;;;13.84;100.00
9307;BME280;4691;47.612;7.610;2023-08-07T03:10:28;99143.03;;;13.80;100.00
9307;BME280;4691;47.612;7.610;2023-08-07T03:12:53;99132.84;;;13.83;100.00
9307;BME280;4691;47.612;7.610;2023-08-07T03:15:18;99133.03;;;13.91;100.00
9307;BME280;4691;47.612;7.610;2023-08-07T03:17:44;99123.56;;;13.87;100.00
9307;BME280;4691;47.612;7.610;2023-08-07T03:20:12;99129.16;;;13.84;100.00
9307;BME280;4691;47.612;7.610;2023-08-07T03:22:37;99133.13;;;13.80;100.00
9307;BME280;4691;47.612;7.610;2023-08-07T03:25:02;99131.16;;;13.82;100.00
9307;BME280;4691;47.612;7.610;2023-08-07T03:27:28;99136.53;;;13.82;100.00
9307;BME280;4691;47.612;7.610;2023-08-07T03:29:53;99136.53;;;13.82;100.00
9307;BME280;4691;47.612;7.610;2023-08-07T03:32:19;99134.25;;;13.78;100.00
9307;BME280;4691;47.612;7.610;2023-08-07T03:34:44;99139.00;;;13.74;100.00
9307;BME280;4691;47.612;7.610;2023-08-07T03:37:09;99131.09;;;13.72;100.00
9307;BME280;4691;47.612;7.610;2023-08-07T03:39:35;99135.34;;;13.75;100.00
9307;BME280;4691;47.612;7.610;2023-08-07T03:42:00;99128.97;;;13.76;100.00
9307;BME280;4691;47.612;7.610;2023-08-07T03:44:25;99135.63;;;13.72;100.00
9307;BME280;4691;47.612;7.610;2023-08-07T03:46:53;99146.09;;;13.75;100.00
9307;BME280;4691;47.612;7.610;2023-08-07T03:49:21;99143.81;;;13.70;100.00
9307;BME280;4691;47.612;7.610;2023-08-07T03:51:47;99150.28;;;13.68;100.00
9307;BME280;4691;47.612;7.610;2023-08-07T03:54:15;99139.09;;;13.63;100.00
9307;BME280;4691;47.612;7.610;2023-08-07T03:56:41;99137.84;;;13.67;100.00
9307;BME280;4691;47.612;7.610;2023-08-07T03:59:06;99140.53;;;13.67;100.00
9307;BME280;4691;47.612;7.610;2023-08-07T04:01:31;99142.78;;;13.62;100.00
9307;BME280;4691;47.612;7.610;2023-08-07T04:03:57;99141.25;;;13.69;100.00
9307;BME280;4691;47.612;7.610;2023-08-07T04:06:25;99145.19;;;13.65;100.00
9307;BME280;4691;47.612;7.610;2023-08-07T04:08:52;99132.03;;;13.62;100.00
9307;BME280;4691;47.612;7.610;2023-08-07T04:11:17;99147.16;;;13.63;100.00
9307;BME280;4691;47.612;7.610;2023-08-07T04:13:42;99152.53;;;13.63;100.00
9307;BME280;4691;47.612;7.610;2023-08-07T04:16:08;99160.13;;;13.58;100.00
9307;BME280;4691;47.612;7.610;2023-08-07T04:18:33;99145.47;;;13.62;100.00
9307;BME280;4691;47.612;7.610;2023-08-07T04:20:59;99149.38;;;13.58;100.00
9307;BME280;4691;47.612;7.610;2023-08-07T04:23:25;99147.16;;;13.63;100.00
9307;BME280;4691;47.612;7.610;2023-08-07T04:25:51;99147.41;;;13.60;100.00
9307;BME280;4691;47.612;7.610;2023-08-07T04:28:17;99153.06;;;13.57;100.00
9307;BME280;4691;47.612;7.610;2023-08-07T04:30:43;99143.47;;;13.64;100.00
9307;BME280;4691;47.612;7.610;2023-08-07T04:33:09;99148.84;;;13.64;100.00
9307;BME280;4691;47.612;7.610;2023-08-07T04:35:35;99168.38;;;13.66;100.00
9307;BME280;4691;47.612;7.610;2023-08-07T04:38:01;99152.53;;;13.63;100.00
9307;BME280;4691;47.612;7.610;2023-08-07T04:40:27;99151.16;;;13.68;100.00
9307;BME280;4691;47.612;7.610;2023-08-07T04:42:52;99148.34;;;13.70;100.00
9307;BME280;4691;47.612;7.610;2023-08-07T04:45:18;99151.28;;;13.67;100.00
9307;BME280;4691;47.612;7.610;2023-08-07T04:47:43;99158.25;;;13.69;100.00
9307;BME280;4691;47.612;7.610;2023-08-07T04:50:09;99155.94;;;13.65;100.00
9307;BME280;4691;47.612;7.610;2023-08-07T04:52:35;99156.53;;;13.68;100.00
9307;BME280;4691;47.612;7.610;2023-08-07T04:55:00;99160.47;;;13.64;100.00
9307;BME280;4691;47.612;7.610;2023-08-07T04:57:26;99156.78;;;13.65;100.00
9307;BME280;4691;47.612;7.610;2023-08-07T04:59:52;99160.06;;;13.69;100.00
9307;BME280;4691;47.612;7.610;2023-08-07T05:02:17;99161.03;;;13.68;100.00
9307;BME280;4691;47.612;7.610;2023-08-07T05:04:42;99166.41;;;13.68;100.00
9307;BME280;4691;47.612;7.610;2023-08-07T05:07:08;99156.84;;;13.75;100.00
9307;BME280;4691;47.612;7.610;2023-08-07T05:09:33;99164.19;;;13.73;100.00
9307;BME280;4691;47.612;7.610;2023-08-07T05:11:58;99162.22;;;13.75;100.00
9307;BME280;4691;47.612;7.610;2023-08-07T05:14:24;99165.66;;;13.77;100.00
9307;BME280;4691;47.612;7.610;2023-08-07T05:16:54;99170.22;;;13.86;100.00
9307;BME280;4691;47.612;7.610;2023-08-07T05:19:20;99175.00;;;13.83;100.00
9307;BME280;4691;47.612;7.610;2023-08-07T05:21:45;99170.75;;;13.80;100.00
9307;BME280;4691;47.612;7.610;2023-08-07T05:24:15;99168.53;;;13.85;100.00
9307;BME280;4691;47.612;7.610;2023-08-07T05:26:40;99165.44;;;13.90;100.00
9307;BME280;4691;47.612;7.610;2023-08-07T05:29:05;99168.72;;;13.93;100.00
9307;BME280;4691;47.612;7.610;2023-08-07T05:31:32;99165.56;;;13.88;100.00
9307;BME280;4691;47.612;7.610;2023-08-07T05:33:57;99164.06;;;13.96;100.00
9307;BME280;4691;47.612;7.610;2023-08-07T05:36:22;99166.03;;;13.93;100.00
9307;BME280;4691;47.612;7.610;2023-08-07T05:38:47;99160.53;;;13.95;100.00
9307;BME280;4691;47.612;7.610;2023-08-07T05:41:13;99167.00;;;13.92;100.00
9307;BME280;4691;47.612;7.610;2023-08-07T05:43:38;99168.31;;;13.98;100.00
9307;BME280;4691;47.612;7.610;2023-08-07T05:46:03;99163.50;;;14.02;100.00
9307;BME280;4691;47.612;7.610;2023-08-07T05:48:31;99170.63;;;14.03;100.00
9307;BME280;4691;47.612;7.610;2023-08-07T05:50:57;99161.56;;;14.04;100.00
9307;BME280;4691;47.612;7.610;2023-08-07T05:53:22;99167.19;;;14.01;100.00
9307;BME280;4691;47.612;7.610;2023-08-07T05:55:47;99175.16;;;14.12;100.00
9307;BME280;4691;47.612;7.610;2023-08-07T05:58:13;99165.53;;;14.09;100.00
9307;BME280;4691;47.612;7.610;2023-08-07T06:00:41;99168.09;;;14.11;100.00
9307;BME280;4691;47.612;7.610;2023-08-07T06:03:06;99169.06;;;14.10;100.00
9307;BME280;4691;47.612;7.610;2023-08-07T06:05:34;99175.72;;;14.06;100.00
9307;BME280;4691;47.612;7.610;2023-08-07T06:08:00;99179.97;;;14.08;100.00
9307;BME280;4691;47.612;7.610;2023-08-07T06:10:26;99189.00;;;14.07;100.00
9307;BME280;4691;47.612;7.610;2023-08-07T06:12:51;99177.59;;;14.15;100.00
9307;BME280;4691;47.612;7.610;2023-08-07T06:15:16;99184.81;;;14.14;100.00
9307;BME280;4691;47.612;7.610;2023-08-07T06:17:42;99189.63;;;14.11;100.00
9307;BME280;4691;47.612;7.610;2023-08-07T06:20:08;99184.97;;;14.13;100.00
9307;BME280;4691;47.612;7.610;2023-08-07T06:22:35;99193.72;;;14.15;100.00
9307;BME280;4691;47.612;7.610;2023-08-07T06:25:03;99198.13;;;14.16;100.00
9307;BME280;4691;47.612;7.610;2023-08-07T06:27:30;99204.38;;;14.16;100.00
9307;BME280;4691;47.612;7.610;2023-08-07T06:29:56;99194.44;;;14.17;100.00
9307;BME280;4691;47.612;7.610;2023-08-07T06:32:22;99200.69;;;14.18;100.00
9307;BME280;4691;47.612;7.610;2023-08-07T06:34:48;99204.09;;;14.20;100.00
9307;BME280;4691;47.612;7.610;2023-08-07T06:37:13;99209.47;;;14.20;100.00
9307;BME280;4691;47.612;7.610;2023-08-07T06:39:38;99211.19;;;14.21;100.00
9307;BME280;4691;47.612;7.610;2023-08-07T06:42:04;99221.63;;;14.14;100.00
9307;BME280;4691;47.612;7.610;2023-08-07T06:44:29;99245.03;;;14.02;100.00
9307;BME280;4691;47.612;7.610;2023-08-07T06:46:54;99255.97;;;13.89;100.00
9307;BME280;4691;47.612;7.610;2023-08-07T06:49:20;99262.13;;;13.80;100.00
9307;BME280;4691;47.612;7.610;2023-08-07T06:51:45;99280.22;;;13.78;100.00
9307;BME280;4691;47.612;7.610;2023-08-07T06:54:11;99281.25;;;13.66;100.00
9307;BME280;4691;47.612;7.610;2023-08-07T06:56:36;99294.88;;;13.74;100.00
9307;BME280;4691;47.612;7.610;2023-08-07T06:59:03;99301.16;;;13.75;100.00
9307;BME280;4691;47.612;7.610;2023-08-07T07:01:29;99307.31;;;13.86;100.00
9307;BME280;4691;47.612;7.610;2023-08-07T07:03:54;99294.00;;;13.85;100.00
9307;BME280;4691;47.612;7.610;2023-08-07T07:06:20;99300.97;;;13.87;100.00
9307;BME280;4691;47.612;7.610;2023-08-07T07:08:46;99294.06;;;13.94;100.00
9307;BME280;4691;47.612;7.610;2023-08-07T07:11:11;99286.94;;;14.05;100.00
9307;BME280;4691;47.612;7.610;2023-08-07T07:13:37;99278.84;;;14.05;100.00
9307;BME280;4691;47.612;7.610;2023-08-07T07:16:02;99281.81;;;14.02;100.00
9307;BME280;4691;47.612;7.610;2023-08-07T07:18:28;99292.97;;;13.97;100.00
9307;BME280;4691;47.612;7.610;2023-08-07T07:20:59;99282.91;;;14.10;100.00
9307;BME280;4691;47.612;7.610;2023-08-07T07:23:25;99285.47;;;14.43;100.00
9307;BME280;4691;47.612;7.610;2023-08-07T07:25:51;99269.78;;;14.69;100.00
9307;BME280;4691;47.612;7.610;2023-08-07T07:28:16;99273.75;;;14.95;100.00
9307;BME280;4691;47.612;7.610;2023-08-07T07:30:41;99267.66;;;15.03;100.00
9307;BME280;4691;47.612;7.610;2023-08-07T07:33:07;99273.69;;;15.26;100.00
9307;BME280;4691;47.612;7.610;2023-08-07T07:35:37;99258.91;;;15.20;100.00
9307;BME280;4691;47.612;7.610;2023-08-07T07:38:03;99255.22;;;15.21;100.00
9307;BME280;4691;47.612;7.610;2023-08-07T07:40:28;99257.78;;;15.33;100.00
9307;BME280;4691;47.612;7.610;2023-08-07T07:42:53;99262.91;;;15.36;100.00
9307;BME280;4691;47.612;7.610;2023-08-07T07:45:19;99269.44;;;15.43;100.00
9307;BME280;4691;47.612;7.610;2023-08-07T07:47:44;99268.03;;;15.49;100.00
9307;BME280;4691;47.612;7.610;2023-08-07T07:50:09;99258.66;;;15.43;100.00
9307;BME280;4691;47.612;7.610;2023-08-07T07:52:35;99255.50;;;15.28;100.00
9307;BME280;4691;47.612;7.610;2023-08-07T07:55:00;99264.06;;;15.43;100.00
9307;BME280;4691;47.612;7.610;2023-08-07T07:57:26;99269.16;;;15.46;100.00
9307;BME280;4691;47.612;7.610;2023-08-07T07:59:51;99275.13;;;15.40;100.00
9307;BME280;4691;47.612;7.610;2023-08-07T08:02:17;99272.56;;;15.48;100.00
9307;BME280;4691;47.612;7.610;2023-08-07T08:04:42;99268.03;;;15.49;100.00
9307;BME280;4691;47.612;7.610;2023-08-07T08:07:07;99270.66;;;15.70;100.00
9307;BME280;4691;47.612;7.610;2023-08-07T08:09:33;99266.22;;;15.68;100.00
9307;BME280;4691;47.612;7.610;2023-08-07T08:11:59;99253.44;;;15.41;100.00
9307;BME280;4691;47.612;7.610;2023-08-07T08:14:25;99251.44;;;15.53;100.00
9307;BME280;4691;47.612;7.610;2023-08-07T08:16:50;99254.13;;;15.43;100.00
9307;BME280;4691;47.612;7.610;2023-08-07T08:19:15;99255.84;;;15.44;100.00
9307;BME280;4691;47.612;7.610;2023-08-07T08:21:42;99264.91;;;15.53;100.00
9307;BME280;4691;47.612;7.610;2023-08-07T08:24:07;99258.38;;;15.46;100.00
9307;BME280;4691;47.612;7.610;2023-08-07T08:26:32;99272.88;;;15.55;100.00
9307;BME280;4691;47.612;7.610;2023-08-07T08:28:58;99271.75;;;15.57;100.00
9307;BME280;4691;47.612;7.610;2023-08-07T08:31:23;99280.53;;;15.59;100.00
9307;BME280;4691;47.612;7.610;2023-08-07T08:33:49;99271.06;;;15.84;100.00
9307;BME280;4691;47.612;7.610;2023-08-07T08:36:14;99262.13;;;15.84;100.00
9307;BME280;4691;47.612;7.610;2023-08-07T08:38:40;99260.81;;;15.98;100.00
9307;BME280;4691;47.612;7.610;2023-08-07T08:41:07;99249.91;;;15.99;100.00
9307;BME280;4691;47.612;7.610;2023-08-07T08:43:35;99254.16;;;15.92;100.00
9307;BME280;4691;47.612;7.610;2023-08-07T08:46:07;99265.97;;;15.91;100.00
9307;BME280;4691;47.612;7.610;2023-08-07T08:48:38;99260.56;;;15.91;100.00
9307;BME280;4691;47.612;7.610;2023-08-07T08:51:03;99260.69;;;15.99;100.00
9307;BME280;4691;47.612;7.610;2023-08-07T08:53:30;99268.34;;;16.14;100.00
9307;BME280;4691;47.612;7.610;2023-08-07T08:55:55;99264.53;;;16.16;100.00
9307;BME280;4691;47.612;7.610;2023-08-07T08:58:22;99258.97;;;16.18;100.00
9307;BME280;4691;47.612;7.610;2023-08-07T09:00:48;99257.69;;;16.22;100.00
9307;BME280;4691;47.612;7.610;2023-08-07T09:03:15;99255.22;;;16.38;100.00
9307;BME280;4691;47.612;7.610;2023-08-07T09:05:41;99251.38;;;16.41;100.00
9307;BME280;4691;47.612;7.610;2023-08-07T09:08:07;99237.66;;;16.62;100.00
9307;BME280;4691;47.612;7.610;2023-08-07T09:10:34;99241.34;;;16.80;100.00
9307;BME280;4691;47.612;7.610;2023-08-07T09:13:01;99236.34;;;16.85;100.00
9307;BME280;4691;47.612;7.610;2023-08-07T09:15:32;99239.16;;;16.93;100.00
9307;BME280;4691;47.612;7.610;2023-08-07T09:17:58;99231.44;;;16.98;100.00
9307;BME280;4691;47.612;7.610;2023-08-07T09:20:25;99226.75;;;17.01;100.00
9307;BME280;4691;47.612;7.610;2023-08-07T09:22:50;99229.72;;;16.97;100.00
9307;BME280;4691;47.612;7.610;2023-08-07T09:25:32;99238.75;;;16.88;100.00
9307;BME280;4691;47.612;7.610;2023-08-07T09:28:01;99233.78;;;16.74;100.00
9307;BME280;4691;47.612;7.610;2023-08-07T09:30:29;99233.66;;;16.85;100.00
9307;BME280;4691;47.612;7.610;2023-08-07T09:32:59;99239.16;;;16.93;100.00
9307;BME280;4691;47.612;7.610;2023-08-07T09:35:25;99227.63;;;17.19;100.00
9307;BME280;4691;47.612;7.610;2023-08-07T09:37:51;99219.69;;;17.53;100.00
9307;BME280;4691;47.612;7.610;2023-08-07T09:40:17;99202.69;;;17.79;100.00
9307;BME280;4691;47.612;7.610;2023-08-07T09:42:43;99197.31;;;18.05;100.00
9307;BME280;4691;47.612;7.610;2023-08-07T09:45:25;99205.72;;;17.94;100.00
9307;BME280;4691;47.612;7.610;2023-08-07T09:47:58;99208.41;;;17.76;100.00
9307;BME280;4691;47.612;7.610;2023-08-07T09:50:24;99218.06;;;17.60;100.00
9307;BME280;4691;47.612;7.610;2023-08-07T09:52:51;99222.63;;;17.24;100.00
9307;BME280;4691;47.612;7.610;2023-08-07T09:55:16;99225.41;;;17.32;100.00
9307;BME280;4691;47.612;7.610;2023-08-07T09:57:43;99233.03;;;17.19;100.00
9307;BME280;4691;47.612;7.610;2023-08-07T10:00:09;99230.72;;;17.24;100.00
9307;BME280;4691;47.612;7.610;2023-08-07T10:02:39;99226.75;;;17.18;100.00
9307;BME280;4691;47.612;7.610;2023-08-07T10:05:06;99229.13;;;17.04;100.00
9307;BME280;4691;47.612;7.610;2023-08-07T10:07:32;99228.88;;;16.97;100.00
9307;BME280;4691;47.612;7.610;2023-08-07T10:10:01;99249.59;;;17.06;100.00
9307;BME280;4691;47.612;7.610;2023-08-07T10:12:28;99255.69;;;16.71;100.00
9307;BME280;4691;47.612;7.610;2023-08-07T10:14:54;99272.50;;;16.65;100.00
9307;BME280;4691;47.612;7.610;2023-08-07T10:17:21;99281.84;;;16.70;100.00
9307;BME280;4691;47.612;7.610;2023-08-07T10:19:46;99260.25;;;17.08;100.00
9307;BME280;4691;47.612;7.610;2023-08-07T10:22:12;99240.53;;;17.79;100.00
9307;BME280;4691;47.612;7.610;2023-08-07T10:24:40;99225.75;;;18.27;100.00
9307;BME280;4691;47.612;7.610;2023-08-07T10:27:07;99212.75;;;18.99;100.00
9307;BME280;4691;47.612;7.610;2023-08-07T10:29:34;99184.25;;;19.70;100.00
9307;BME280;4691;47.612;7.610;2023-08-07T10:32:01;99169.16;;;20.00;100.00
9307;BME280;4691;47.612;7.610;2023-08-07T10:34:33;99178.34;;;19.67;100.00
9307;BME280;4691;47.612;7.610;2023-08-07T10:36:59;99189.53;;;20.05;100.00
9307;BME280;4691;47.612;7.610;2023-08-07T10:39:24;99163.72;;;20.25;100.00
9307;BME280;4691;47.612;7.610;2023-08-07T10:41:53;99185.56;;;19.42;100.00
9307;BME280;4691;47.612;7.610;2023-08-07T10:44:24;99207.31;;;18.65;100.00
9307;BME280;4691;47.612;7.610;2023-08-07T10:46:53;99219.84;;;17.88;100.00
9307;BME280;4691;47.612;7.610;2023-08-07T10:49:35;99242.91;;;17.28;100.00
9307;BME280;4691;47.612;7.610;2023-08-07T10:54:29;99266.50;;;16.81;100.00
9307;BME280;4691;47.612;7.610;2023-08-07T10:56:54;99256.44;;;17.46;100.00
9307;BME280;4691;47.612;7.610;2023-08-07T10:59:20;99246.84;;;17.79;100.00
9307;BME280;4691;47.612;7.610;2023-08-07T11:01:51;99224.34;;;18.23;100.00
9307;BME280;4691;47.612;7.610;2023-08-07T11:04:16;99216.75;;;18.53;100.00
9307;BME280;4691;47.612;7.610;2023-08-07T11:06:46;99215.03;;;18.78;100.00
9307;BME280;4691;47.612;7.610;2023-08-07T11:12:45;99158.09;;;20.82;100.00
9307;BME280;4691;47.612;7.610;2023-08-07T11:15:13;99108.69;;;21.94;100.00
9307;BME280;4691;47.612;7.610;2023-08-07T11:17:39;99077.38;;;23.86;100.00
9307;BME280;4691;47.612;7.610;2023-08-07T11:20:06;99072.81;;;22.86;100.00
9307;BME280;4691;47.612;7.610;2023-08-07T11:22:32;99056.22;;;22.81;100.00
9307;BME280;4691;47.612;7.610;2023-08-07T11:24:57;99072.47;;;21.33;100.00
9307;BME280;4691;47.612;7.610;2023-08-07T11:27:22;99068.06;;;21.31;100.00
9307;BME280;4691;47.612;7.610;2023-08-07T11:29:48;99087.50;;;20.74;100.00
9307;BME280;4691;47.612;7.610;2023-08-07T11:32:14;99065.06;;;21.64;100.00
9307;BME280;4691;47.612;7.610;2023-08-07T11:34:39;99056.84;;;21.87;100.00
9307;BME280;4691;47.612;7.610;2023-08-07T11:37:05;99047.75;;;21.95;100.00
9307;BME280;4691;47.612;7.610;2023-08-07T11:39:30;99029.44;;;22.33;100.00
9307;BME280;4691;47.612;7.610;2023-08-07T11:41:55;99029.28;;;23.08;100.00
9307;BME280;4691;47.612;7.610;2023-08-07T11:44:22;99031.97;;;23.29;100.00
9307;BME280;4691;47.612;7.610;2023-08-07T11:46:50;99037.75;;;22.61;100.00
9307;BME280;4691;47.612;7.610;2023-08-07T11:49:15;99054.88;;;21.81;100.00
9307;BME280;4691;47.612;7.610;2023-08-07T11:51:41;99066.44;;;21.22;100.00
9307;BME280;4691;47.612;7.610;2023-08-07T11:54:06;99087.53;;;20.66;100.00
9307;BME280;4691;47.612;7.610;2023-08-07T11:56:32;99078.53;;;20.18;100.00
9307;BME280;4691;47.612;7.610;2023-08-07T11:58:57;99057.44;;;21.45;100.00
9307;BME280;4691;47.612;7.610;2023-08-07T12:01:24;99049.72;;;22.46;100.00
9307;BME280;4691;47.612;7.610;2023-08-07T12:03:54;99011.34;;;23.76;100.00
9307;BME280;4691;47.612;7.610;2023-08-07T12:06:25;99031.88;;;22.43;100.00
9307;BME280;4691;47.612;7.610;2023-08-07T12:08:54;99026.53;;;21.38;100.00
9307;BME280;4691;47.612;7.610;2023-08-07T12:11:20;99033.84;;;21.37;100.00
9307;BME280;4691;47.612;7.610;2023-08-07T12:13:49;99057.72;;;21.50;100.00
9307;BME280;4691;47.612;7.610;2023-08-07T12:16:16;99018.06;;;23.24;100.00
9307;BME280;4691;47.612;7.610;2023-08-07T12:21:20;98956.34;;;25.62;100.00
9307;BME280;4691;47.612;7.610;2023-08-07T12:23:48;98996.16;;;23.67;100.00
9307;BME280;4691;47.612;7.610;2023-08-07T12:26:14;99023.13;;;23.27;100.00
9307;BME280;4691;47.612;7.610;2023-08-07T12:28:40;99002.63;;;23.31;100.00
9307;BME280;4691;47.612;7.610;2023-08-07T12:31:05;99053.66;;;22.13;100.00
9307;BME280;4691;47.612;7.610;2023-08-07T12:33:32;99085.16;;;21.63;100.00
9307;BME280;4691;47.612;7.610;2023-08-07T12:35:57;99049.63;;;22.39;100.00
9307;BME280;4691;47.612;7.610;2023-08-07T12:38:23;99075.00;;;21.57;100.00
9307;BME280;4691;47.612;7.610;2023-08-07T12:40:49;99068.59;;;21.50;100.00
9307;BME280;4691;47.612;7.610;2023-08-07T12:43:14;99057.88;;;22.01;100.00
9307;BME280;4691;47.612;7.610;2023-08-07T12:45:39;99032.78;;;22.50;100.00
9307;BME280;4691;47.612;7.610;2023-08-07T12:48:05;99038.97;;;21.32;100.00
9307;BME280;4691;47.612;7.610;2023-08-07T12:50:30;99031.31;;;21.73;100.00
9307;BME280;4691;47.612;7.610;2023-08-07T12:52:56;99044.72;;;21.75;100.00
9307;BME280;4691;47.612;7.610;2023-08-07T12:55:21;99051.13;;;21.97;100.00
9307;BME280;4691;47.612;7.610;2023-08-07T12:57:47;99013.47;;;23.24;100.00
9307;BME280;4691;47.612;7.610;2023-08-07T13:00:14;98987.03;;;24.77;100.00
9307;BME280;4691;47.612;7.610;2023-08-07T13:02:41;98991.28;;;24.87;100.00
9307;BME280;4691;47.612;7.610;2023-08-07T13:05:07;99006.31;;;24.15;100.00
9307;BME280;4691;47.612;7.610;2023-08-07T13:07:33;98975.34;;;25.37;100.00
9307;BME280;4691;47.612;7.610;2023-08-07T13:09:59;98981.59;;;25.04;100.00
9307;BME280;4691;47.612;7.610;2023-08-07T13:12:24;98966.81;;;25.92;100.00
9307;BME280;4691;47.612;7.610;2023-08-07T13:14:49;98949.81;;;25.63;100.00
9307;BME280;4691;47.612;7.610;2023-08-07T13:17:15;98949.03;;;25.36;100.00
9307;BME280;4691;47.612;7.610;2023-08-07T13:19:40;98941.22;;;25.19;100.00
9307;BME280;4691;47.612;7.610;2023-08-07T13:22:07;98924.38;;;25.09;100.00